Terminal Aerodrome Forecast
Issued by NWS

Home | Current Version | Previous Version | Text Only | Print | Product List | Glossary On
Versions: 1 2 3 4 5 6 7 8 9 10 11 12 13 14 15 16 17 18 19 20 21
579
FTUS43 KMPX 071454 AAA
TAFAXN
TAF AMD
KAXN 071454Z 0715/0812 29022G30KT P6SM SCT020 BKN035
     FM071800 30022G32KT 6SM -SN BLSN OVC025
     FM072000 32028G40KT 2SM -SN BLSN OVC015
     FM080900 33025G33KT 1SM BLSN OVC020=

USA.gov is the U.S. government's official web portal to all federal, state and local government web resources and services.